OALG weather

Logar Airport
Logar Province, Afghanistan

Public forecast

Using degrees Celsius for public forecast. Weather courtesy of forecast.io.

METAR (pilot weather report)

Closest report is Hamid Karzai International Airport, 36.0 nm (66.7 km) NNE. Retrieved 2019/08/20 15:50 UTC (15 minutes ago):

OAKB 201550Z 04008KT CAVOK 25/M10 Q1016 NOSIG RMK A3002 BLU BLU

TAF (pilot weather forecast)

Closest forecast is Hamid Karzai International Airport, 36.0 nm (66.7 km) NNE. Retrieved 2019/08/20 12:05 UTC (4 hours ago):

TAF OAKB 201105Z 2012/2112 01012KT CAVOK TEMPO 2012/2016 03015G25KT BECMG 2016/2018 VRB02KT BECMG 2108/2110 02012KT